Time;durP1;ratioP1;P1;durP2;ratioP2;P2;SDS_P1;SDS_P2;PMS_P1;PMS_P2;Temp;Humidity;BMP_temperature;BMP_pressure;BME280_temperature;BME280_humidity;BME280_pressure;Samples;Min_cycle;Max_cycle;Signal;HPM_P1;HPM_P2
2022/09/19 00:01:12;;;;;;;14.50;2.10;;;;;;;;;;5047889;28;20040;-74
2022/09/19 00:03:40;;;;;;;13.95;1.73;;;;;;;;;;5027980;28;20052;-74
2022/09/19 00:06:06;;;;;;;17.63;2.05;;;;;;;;;;5050008;28;20085;-74
2022/09/19 00:08:32;;;;;;;19.75;2.30;;;;;;;;;;5031471;28;20590;-74
2022/09/19 00:11:01;;;;;;;13.23;1.90;;;;;;;;;;5026478;28;20090;-74
2022/09/19 00:13:27;;;;;;;12.90;1.90;;;;;;;;;;5043943;28;20037;-74
2022/09/19 00:15:53;;;;;;;14.23;1.90;;;;;;;;;;5044365;28;20044;-74
2022/09/19 00:18:19;;;;;;;11.90;1.77;;;;;;;;;;5045426;28;20124;-74
2022/09/19 00:20:47;;;;;;;15.50;2.25;;;;;;;;;;5047361;28;20505;-74
2022/09/19 00:26:01;;;;;;;13.88;1.60;;;;;;;;;;5045209;28;20558;-74
2022/09/19 00:28:27;;;;;;;21.73;2.40;;;;;;;;;;5045860;28;20145;-74
2022/09/19 00:30:54;;;;;;;17.35;2.53;;;;;;;;;;5045644;28;20048;-74
2022/09/19 00:33:21;;;;;;;11.90;2.03;;;;;;;;;;5044887;28;20072;-74
2022/09/19 00:35:54;;;;;;;17.15;2.35;;;;;;;;;;5044418;28;20037;-74
2022/09/19 00:38:21;;;;;;;17.85;2.05;;;;;;;;;;5045098;28;20040;-74
2022/09/19 00:40:48;;;;;;;13.13;1.88;;;;;;;;;;5044603;28;20044;-74
2022/09/19 00:43:14;;;;;;;12.80;1.88;;;;;;;;;;5050119;28;20037;-74
2022/09/19 00:45:40;;;;;;;14.93;1.77;;;;;;;;;;5051080;28;20459;-74
2022/09/19 00:48:07;;;;;;;14.02;2.10;;;;;;;;;;5050725;28;20081;-74
2022/09/19 00:50:33;;;;;;;10.85;1.70;;;;;;;;;;5051144;28;20487;-74
2022/09/19 00:53:04;;;;;;;14.48;2.00;;;;;;;;;;5049211;28;20052;-74
2022/09/19 00:55:31;;;;;;;13.63;1.80;;;;;;;;;;5050176;28;20128;-74
2022/09/19 00:58:00;;;;;;;12.88;1.88;;;;;;;;;;5051183;28;20087;-74
2022/09/19 01:00:26;;;;;;;16.48;2.17;;;;;;;;;;5050449;28;20041;-74
2022/09/19 01:02:52;;;;;;;12.27;1.55;;;;;;;;;;5047839;28;20040;-74
2022/09/19 01:05:23;;;;;;;16.33;1.95;;;;;;;;;;5054615;28;20044;-74
2022/09/19 01:08:08;;;;;;;17.08;2.20;;;;;;;;;;5052088;28;20045;-74
2022/09/19 01:10:48;;;;;;;16.75;1.90;;;;;;;;;;5047091;28;20132;-74
2022/09/19 01:13:38;;;;;;;18.95;2.10;;;;;;;;;;5052983;28;20052;-74
2022/09/19 01:16:09;;;;;;;13.90;1.95;;;;;;;;;;5053335;28;20049;-74
2022/09/19 01:18:44;;;;;;;17.02;1.90;;;;;;;;;;5056044;28;20044;-74
2022/09/19 01:21:39;;;;;;;16.13;2.25;;;;;;;;;;5052723;28;20574;-74
2022/09/19 01:24:19;;;;;;;20.70;1.90;;;;;;;;;;5051228;28;20391;-74
2022/09/19 01:26:51;;;;;;;14.30;2.20;;;;;;;;;;5054615;28;20049;-74
2022/09/19 01:29:23;;;;;;;14.32;1.67;;;;;;;;;;5055074;28;20048;-74
2022/09/19 01:31:49;;;;;;;;;;;;;;;;;;5054156;28;20076;-74
2022/09/19 01:34:20;;;;;;;15.95;2.30;;;;;;;;;;5053921;28;20312;-74
2022/09/19 01:36:46;;;;;;;19.35;2.55;;;;;;;;;;5053615;28;20041;-73
2022/09/19 01:39:15;;;;;;;20.80;2.55;;;;;;;;;;5052559;28;20049;-74
2022/09/19 01:41:47;;;;;;;17.00;2.03;;;;;;;;;;5051659;28;20067;-73
2022/09/19 01:44:16;;;;;;;21.35;2.63;;;;;;;;;;5052574;28;20136;-74
2022/09/19 01:46:43;;;;;;;17.13;1.95;;;;;;;;;;5054797;28;20127;-74
2022/09/19 01:49:27;;;;;;;17.25;2.53;;;;;;;;;;5052303;28;21342;-74
2022/09/19 01:52:08;;;;;;;18.55;2.65;;;;;;;;;;5051702;28;20183;-73
2022/09/19 01:54:42;;;;;;;19.15;2.25;;;;;;;;;;5041651;28;20075;-73
2022/09/19 01:57:14;;;;;;;17.65;2.00;;;;;;;;;;5054694;28;20060;-74
2022/09/19 01:59:56;;;;;;;15.00;2.22;;;;;;;;;;5054328;28;20462;-73
2022/09/19 02:02:33;;;;;;;16.50;2.10;;;;;;;;;;5033281;28;20102;-74
2022/09/19 02:05:14;;;;;;;11.98;1.95;;;;;;;;;;5050567;28;20144;-74
2022/09/19 02:08:16;;;;;;;16.35;2.45;;;;;;;;;;5052765;28;20041;-73
2022/09/19 02:10:41;;;;;;;;;;;;;;;;;;5029531;28;20504;-74
2022/09/19 02:13:09;;;;;;;18.10;2.60;;;;;;;;;;4998086;28;19921;-74
2022/09/19 02:15:36;;;;;;;20.10;2.60;;;;;;;;;;5029903;28;20068;-74
2022/09/19 02:18:06;;;;;;;18.92;2.15;;;;;;;;;;5031500;28;20488;-73
2022/09/19 02:20:33;;;;;;;15.00;2.33;;;;;;;;;;5029096;28;20095;-74
2022/09/19 02:23:06;;;;;;;15.77;2.22;;;;;;;;;;5030501;28;20037;-74
2022/09/19 02:25:33;;;;;;;17.10;2.63;;;;;;;;;;5031282;28;20152;-74
2022/09/19 02:28:03;;;;;;;22.55;2.60;;;;;;;;;;5031569;28;20053;-74
2022/09/19 02:30:29;;;;;;;20.30;2.20;;;;;;;;;;5031196;28;20088;-73
2022/09/19 02:32:55;;;;;;;17.42;2.08;;;;;;;;;;5030069;28;20050;-73
2022/09/19 02:35:34;;;;;;;20.92;2.55;;;;;;;;;;5030900;28;20038;-74
2022/09/19 02:38:03;;;;;;;24.85;2.88;;;;;;;;;;5030387;28;20535;-74
2022/09/19 02:40:35;;;;;;;20.33;3.15;;;;;;;;;;5030733;28;20124;-74
2022/09/19 02:43:06;;;;;;;19.52;2.28;;;;;;;;;;5014134;28;20123;-73
2022/09/19 02:45:41;;;;;;;16.98;1.92;;;;;;;;;;5049694;28;20059;-74
2022/09/19 02:48:26;;;;;;;19.25;2.17;;;;;;;;;;5034233;28;20057;-73
2022/09/19 02:51:01;;;;;;;19.83;2.42;;;;;;;;;;5051970;28;20076;-74
2022/09/19 02:53:29;;;;;;;19.08;2.35;;;;;;;;;;5052550;28;20040;-74
2022/09/19 02:56:00;;;;;;;14.20;1.90;;;;;;;;;;5053859;28;20487;-74
2022/09/19 02:58:28;;;;;;;16.85;1.80;;;;;;;;;;5053827;28;20068;-74
2022/09/19 03:00:57;;;;;;;16.45;2.20;;;;;;;;;;5051225;28;20206;-74
2022/09/19 03:06:12;;;;;;;18.65;2.22;;;;;;;;;;5051246;28;20053;-73
2022/09/19 03:08:39;;;;;;;19.50;2.20;;;;;;;;;;5051415;28;20051;-73
2022/09/19 03:11:08;;;;;;;21.33;2.60;;;;;;;;;;5051022;28;20063;-73
2022/09/19 03:13:36;;;;;;;18.45;2.10;;;;;;;;;;5051749;28;20400;-73
2022/09/19 03:16:06;;;;;;;17.05;2.28;;;;;;;;;;5052421;28;20049;-74
2022/09/19 03:18:33;;;;;;;20.10;2.53;;;;;;;;;;5053207;28;20091;-74
2022/09/19 03:21:02;;;;;;;25.02;3.03;;;;;;;;;;5051843;28;20045;-74
2022/09/19 03:23:49;;;;;;;25.67;3.05;;;;;;;;;;5033995;28;20059;-73
2022/09/19 03:26:19;;;;;;;21.63;2.55;;;;;;;;;;5040493;28;20037;-74
2022/09/19 03:28:45;;;;;;;18.83;2.13;;;;;;;;;;5049889;28;20056;-73
2022/09/19 03:31:11;;;;;;;23.90;2.47;;;;;;;;;;5051629;28;20053;-73
2022/09/19 03:33:39;;;;;;;21.30;2.60;;;;;;;;;;5052029;28;20049;-73
2022/09/19 03:36:08;;;;;;;20.88;2.20;;;;;;;;;;5052880;28;20120;-73
2022/09/19 03:38:35;;;;;;;21.10;2.72;;;;;;;;;;5051141;28;20045;-73
2022/09/19 03:41:01;;;;;;;20.65;2.50;;;;;;;;;;5049844;28;20051;-72
2022/09/19 03:43:29;;;;;;;19.90;2.60;;;;;;;;;;5051853;28;20411;-73
2022/09/19 03:45:55;;;;;;;20.20;2.33;;;;;;;;;;5051231;28;20049;-73
2022/09/19 03:48:22;;;;;;;20.88;2.78;;;;;;;;;;5051181;28;20053;-73
2022/09/19 03:50:48;;;;;;;20.52;2.40;;;;;;;;;;5050137;28;20048;-73
2022/09/19 03:53:15;;;;;;;20.85;2.45;;;;;;;;;;5051262;28;20090;-73
2022/09/19 03:55:41;;;;;;;15.38;2.08;;;;;;;;;;5049967;28;20052;-74
2022/09/19 03:58:09;;;;;;;16.77;2.13;;;;;;;;;;5052226;28;20390;-73
2022/09/19 04:00:35;;;;;;;15.95;2.00;;;;;;;;;;5049270;28;20060;-73
2022/09/19 04:03:02;;;;;;;14.93;2.00;;;;;;;;;;5049303;28;20049;-73
2022/09/19 04:05:28;;;;;;;12.32;1.50;;;;;;;;;;5049910;28;20408;-73
2022/09/19 04:07:54;;;;;;;16.20;1.88;;;;;;;;;;5048301;28;20052;-73
2022/09/19 04:10:21;;;;;;;11.05;2.13;;;;;;;;;;5030237;28;20190;-73
2022/09/19 04:12:48;;;;;;;12.90;2.15;;;;;;;;;;5044204;28;20041;-73
2022/09/19 04:15:15;;;;;;;11.75;2.00;;;;;;;;;;5050271;28;20187;-74
2022/09/19 04:17:42;;;;;;;14.40;2.47;;;;;;;;;;5051275;28;20400;-73
2022/09/19 04:20:09;;;;;;;19.02;2.35;;;;;;;;;;5048328;28;20488;-72
2022/09/19 04:22:37;;;;;;;21.63;2.25;;;;;;;;;;5049156;28;20053;-73
2022/09/19 04:25:04;;;;;;;20.98;2.92;;;;;;;;;;5051183;28;20507;-73
2022/09/19 04:27:30;;;;;;;21.13;2.47;;;;;;;;;;5052182;28;20059;-73
2022/09/19 04:29:56;;;;;;;15.73;2.25;;;;;;;;;;5049194;28;20128;-73
2022/09/19 04:32:22;;;;;;;24.48;2.35;;;;;;;;;;5032932;28;20053;-73
2022/09/19 04:34:49;;;;;;;16.95;2.05;;;;;;;;;;5050390;28;20099;-73
2022/09/19 04:37:15;;;;;;;14.27;2.17;;;;;;;;;;5050423;28;20059;-73
2022/09/19 04:39:41;;;;;;;16.73;2.58;;;;;;;;;;5048839;28;20452;-74
2022/09/19 04:42:08;;;;;;;17.88;2.33;;;;;;;;;;5050304;28;20036;-74
2022/09/19 04:44:35;;;;;;;18.40;2.45;;;;;;;;;;5050400;28;20065;-73
2022/09/19 04:47:01;;;;;;;18.77;2.38;;;;;;;;;;5047954;28;20048;-73
2022/09/19 04:49:34;;;;;;;18.33;2.47;;;;;;;;;;5045959;28;20045;-73
2022/09/19 04:52:00;;;;;;;18.60;2.40;;;;;;;;;;5051025;28;20076;-74
2022/09/19 04:54:26;;;;;;;15.63;1.80;;;;;;;;;;5049014;28;20048;-74
2022/09/19 04:56:52;;;;;;;14.50;2.28;;;;;;;;;;5050198;28;20048;-74
2022/09/19 04:59:19;;;;;;;16.08;2.33;;;;;;;;;;5048915;28;20511;-73
2022/09/19 05:01:45;;;;;;;16.23;2.10;;;;;;;;;;5050308;28;20514;-73
2022/09/19 05:04:11;;;;;;;22.17;2.40;;;;;;;;;;5050183;28;20056;-73
2022/09/19 05:06:37;;;;;;;20.20;2.53;;;;;;;;;;5047576;28;20045;-73
2022/09/19 05:09:03;;;;;;;23.75;2.50;;;;;;;;;;5031093;28;20041;-74
2022/09/19 05:11:29;;;;;;;17.73;2.53;;;;;;;;;;5050771;28;20506;-74
2022/09/19 05:13:55;;;;;;;18.25;2.28;;;;;;;;;;5047432;28;20128;-73
2022/09/19 05:16:21;;;;;;;14.68;2.10;;;;;;;;;;5050228;28;20049;-73
2022/09/19 05:18:49;;;;;;;16.15;2.53;;;;;;;;;;5029614;28;20492;-73
2022/09/19 05:21:16;;;;;;;20.55;2.50;;;;;;;;;;5050421;28;20419;-73
2022/09/19 05:23:42;;;;;;;16.75;2.65;;;;;;;;;;5048956;28;20048;-73
2022/09/19 05:26:09;;;;;;;16.80;2.10;;;;;;;;;;5031203;28;20038;-72
2022/09/19 05:28:36;;;;;;;13.90;2.40;;;;;;;;;;5046861;28;20049;-73
2022/09/19 05:31:05;;;;;;;19.90;2.65;;;;;;;;;;5031575;28;20064;-72
2022/09/19 05:33:32;;;;;;;18.95;2.45;;;;;;;;;;5048066;28;20051;-72
2022/09/19 05:36:00;;;;;;;17.10;2.30;;;;;;;;;;5049758;28;20033;-72
2022/09/19 05:38:30;;;;;;;17.25;2.45;;;;;;;;;;5040046;28;20042;-72
2022/09/19 05:40:57;;;;;;;16.48;2.28;;;;;;;;;;5046808;28;20053;-72
2022/09/19 05:43:23;;;;;;;16.80;2.40;;;;;;;;;;5049107;28;20041;-73
2022/09/19 05:45:52;;;;;;;15.95;2.08;;;;;;;;;;5049855;28;20049;-72
2022/09/19 05:48:19;;;;;;;15.10;2.08;;;;;;;;;;5051337;28;20044;-72
2022/09/19 05:50:46;;;;;;;16.40;2.05;;;;;;;;;;5032989;28;20050;-72
2022/09/19 05:55:58;;;;;;;19.20;2.17;;;;;;;;;;5054176;28;20045;-72
2022/09/19 05:58:25;;;;;;;26.92;2.45;;;;;;;;;;5054449;28;20411;-72
2022/09/19 06:00:51;;;;;;;19.02;2.55;;;;;;;;;;5052485;28;20507;-72
2022/09/19 06:03:18;;;;;;;19.30;2.35;;;;;;;;;;5051591;28;20049;-72
2022/09/19 06:05:45;;;;;;;18.10;2.50;;;;;;;;;;5051877;28;20526;-72
2022/09/19 06:08:12;;;;;;;22.92;2.35;;;;;;;;;;5045495;28;20048;-73
2022/09/19 06:10:39;;;;;;;21.63;2.42;;;;;;;;;;5049720;28;20057;-73
2022/09/19 06:14:13;;;;;;;19.05;2.58;;;;;;;;;;5053232;28;20041;-72
2022/09/19 06:16:11;;;;;;;20.20;2.40;;;;;;;;;;5050082;28;20049;-73
2022/09/19 06:18:37;;;;;;;15.55;2.50;;;;;;;;;;5049645;28;20048;-73
2022/09/19 06:21:03;;;;;;;26.67;2.90;;;;;;;;;;5049800;28;20395;-73
2022/09/19 06:23:29;;;;;;;22.02;2.70;;;;;;;;;;5051090;28;20091;-73
2022/09/19 06:25:55;;;;;;;18.33;2.50;;;;;;;;;;5049928;28;20048;-72
2022/09/19 06:28:22;;;;;;;22.60;2.95;;;;;;;;;;5052908;28;20571;-72
2022/09/19 06:30:48;;;;;;;22.23;2.53;;;;;;;;;;5053992;28;20123;-72
2022/09/19 06:33:14;;;;;;;20.60;2.72;;;;;;;;;;5053525;28;20036;-73
2022/09/19 06:35:40;;;;;;;22.45;2.70;;;;;;;;;;5051222;28;20045;-73
2022/09/19 06:38:06;;;;;;;19.40;2.88;;;;;;;;;;5051888;28;20052;-73
2022/09/19 06:40:32;;;;;;;22.83;2.75;;;;;;;;;;5053717;28;20128;-73
2022/09/19 06:43:03;;;;;;;26.08;3.03;;;;;;;;;;5053423;28;20128;-72
2022/09/19 06:45:29;;;;;;;22.42;2.90;;;;;;;;;;5052782;28;20069;-73
2022/09/19 06:47:56;;;;;;;19.10;2.53;;;;;;;;;;5052428;28;20541;-73
2022/09/19 06:50:23;;;;;;;16.20;2.70;;;;;;;;;;5053746;28;20051;-73
2022/09/19 06:52:49;;;;;;;20.13;2.67;;;;;;;;;;5052924;28;20041;-73
2022/09/19 06:55:15;;;;;;;16.70;2.67;;;;;;;;;;5053194;28;20045;-73
2022/09/19 06:57:40;;;;;;;21.85;2.60;;;;;;;;;;5052883;28;20048;-73
2022/09/19 07:00:07;;;;;;;19.30;2.47;;;;;;;;;;5043437;28;20036;-73
2022/09/19 07:02:33;;;;;;;14.77;1.77;;;;;;;;;;5054979;28;20549;-73
2022/09/19 07:04:59;;;;;;;17.17;2.70;;;;;;;;;;5062337;28;20041;-73
2022/09/19 07:07:25;;;;;;;20.75;2.50;;;;;;;;;;5035433;28;20045;-73
2022/09/19 07:09:51;;;;;;;18.38;2.75;;;;;;;;;;5051277;28;20152;-74
2022/09/19 07:12:17;;;;;;;15.35;2.40;;;;;;;;;;5051897;28;20081;-74
2022/09/19 07:14:43;;;;;;;15.13;2.50;;;;;;;;;;5051500;28;20081;-74
2022/09/19 07:17:12;;;;;;;16.67;2.63;;;;;;;;;;5050987;28;20071;-74
2022/09/19 07:19:39;;;;;;;16.90;2.65;;;;;;;;;;5052472;28;20036;-73
2022/09/19 07:22:05;;;;;;;13.60;2.20;;;;;;;;;;5017713;28;20064;-74
2022/09/19 07:24:31;;;;;;;18.65;2.67;;;;;;;;;;5051706;28;20052;-74
2022/09/19 07:26:57;;;;;;;12.18;2.15;;;;;;;;;;5051987;28;20049;-73
2022/09/19 07:29:23;;;;;;;14.23;2.20;;;;;;;;;;5051720;28;20515;-74
2022/09/19 07:31:49;;;;;;;12.55;1.98;;;;;;;;;;5052191;28;20414;-75
2022/09/19 07:34:15;;;;;;;11.40;1.88;;;;;;;;;;5052408;28;20045;-74
2022/09/19 07:36:41;;;;;;;13.80;2.03;;;;;;;;;;5051827;28;20053;-75
2022/09/19 07:39:07;;;;;;;15.50;1.90;;;;;;;;;;5040840;28;20060;-74
2022/09/19 07:41:33;;;;;;;11.95;1.98;;;;;;;;;;5032073;28;20450;-73
2022/09/19 07:43:59;;;;;;;14.73;2.40;;;;;;;;;;5050917;28;20055;-73
2022/09/19 07:46:26;;;;;;;16.00;2.55;;;;;;;;;;5048670;28;20419;-74
2022/09/19 07:48:54;;;;;;;15.38;2.40;;;;;;;;;;5044732;28;20129;-74
2022/09/19 07:51:20;;;;;;;13.65;2.58;;;;;;;;;;5051226;28;20037;-74
2022/09/19 07:53:49;;;;;;;13.48;2.28;;;;;;;;;;5051378;28;20048;-74
2022/09/19 07:56:15;;;;;;;17.52;2.58;;;;;;;;;;5045898;28;20044;-74
2022/09/19 07:58:41;;;;;;;15.95;2.33;;;;;;;;;;5047989;28;20048;-74
2022/09/19 08:01:07;;;;;;;14.38;2.47;;;;;;;;;;5044875;28;20178;-75
2022/09/19 08:03:33;;;;;;;13.93;2.55;;;;;;;;;;5045967;28;20041;-72
2022/09/19 08:06:02;;;;;;;11.93;2.50;;;;;;;;;;5051063;28;20056;-75
2022/09/19 08:08:28;;;;;;;12.93;1.83;;;;;;;;;;5051880;28;20044;-82
2022/09/19 08:11:00;;;;;;;15.48;2.15;;;;;;;;;;5049750;28;20055;-75
2022/09/19 08:13:27;;;;;;;11.88;1.92;;;;;;;;;;5050293;28;20060;-74
2022/09/19 08:15:53;;;;;;;17.58;2.38;;;;;;;;;;5050275;28;20452;-74
2022/09/19 08:18:21;;;;;;;13.13;1.98;;;;;;;;;;5047246;28;20106;-74
2022/09/19 08:20:48;;;;;;;17.48;2.40;;;;;;;;;;5041583;28;20527;-74
2022/09/19 08:23:16;;;;;;;14.50;2.10;;;;;;;;;;5042581;28;20049;-75
2022/09/19 08:25:46;;;;;;;13.32;1.80;;;;;;;;;;5041489;28;20064;-75
2022/09/19 08:28:12;;;;;;;13.85;2.35;;;;;;;;;;5040704;28;20156;-75
2022/09/19 08:30:38;;;;;;;15.10;2.25;;;;;;;;;;5023690;28;20064;-75
2022/09/19 08:33:06;;;;;;;14.00;2.03;;;;;;;;;;5040949;28;20049;-74
2022/09/19 08:35:37;;;;;;;15.65;2.28;;;;;;;;;;5042496;28;20033;-75
2022/09/19 08:38:04;;;;;;;15.50;2.13;;;;;;;;;;5039327;28;20048;-75
2022/09/19 08:40:31;;;;;;;13.20;2.25;;;;;;;;;;5040101;28;20103;-74
2022/09/19 08:43:15;;;;;;;16.05;2.25;;;;;;;;;;5042779;28;20033;-74
2022/09/19 08:45:55;;;;;;;14.93;2.33;;;;;;;;;;5038668;28;20042;-74
2022/09/19 08:48:24;;;;;;;17.75;2.28;;;;;;;;;;5041135;28;20072;-74
2022/09/19 08:50:56;;;;;;;12.70;1.80;;;;;;;;;;5045174;28;20671;-73
2022/09/19 08:53:27;;;;;;;13.60;2.28;;;;;;;;;;5039917;28;20049;-80
2022/09/19 08:55:55;;;;;;;16.23;2.17;;;;;;;;;;5041346;28;20041;-74
2022/09/19 08:58:23;;;;;;;14.40;2.10;;;;;;;;;;5043088;28;20048;-74
2022/09/19 09:00:49;;;;;;;14.57;2.03;;;;;;;;;;5043794;28;20041;-76
2022/09/19 09:03:16;;;;;;;11.95;2.08;;;;;;;;;;5042660;28;20068;-75
2022/09/19 09:05:44;;;;;;;18.35;2.47;;;;;;;;;;5039409;28;20073;-83
2022/09/19 09:08:29;;;;;;;16.02;2.50;;;;;;;;;;5038497;28;20049;-75
2022/09/19 09:10:59;;;;;;;13.57;2.17;;;;;;;;;;5021700;28;20045;-76
2022/09/19 09:13:37;;;;;;;17.30;3.05;;;;;;;;;;5040256;28;20044;-75
2022/09/19 09:16:17;;;;;;;13.90;2.40;;;;;;;;;;5036967;28;20921;-75
2022/09/19 09:18:44;;;;;;;17.98;3.08;;;;;;;;;;5041964;28;20527;-76
2022/09/19 09:21:28;;;;;;;16.60;2.70;;;;;;;;;;5041421;28;20041;-74
2022/09/19 09:24:01;;;;;;;16.75;2.80;;;;;;;;;;5037935;28;20359;-75
2022/09/19 09:26:28;;;;;;;12.23;2.38;;;;;;;;;;5026213;28;20189;-75
2022/09/19 09:29:11;;;;;;;18.88;3.10;;;;;;;;;;5044214;28;20049;-75
2022/09/19 09:31:43;;;;;;;12.95;2.53;;;;;;;;;;5044903;28;20507;-76
2022/09/19 09:34:18;;;;;;;14.90;2.55;;;;;;;;;;5044483;28;20518;-75
2022/09/19 09:36:51;;;;;;;13.68;2.30;;;;;;;;;;5040983;28;20041;-75
2022/09/19 09:39:58;;;;;;;12.90;2.63;;;;;;;;;;5048663;28;21984;-75
2022/09/19 09:42:26;;;;;;;16.23;2.40;;;;;;;;;;5041822;28;20119;-75
2022/09/19 09:45:00;;;;;;;13.63;2.33;;;;;;;;;;5053505;28;20051;-75
2022/09/19 09:47:48;;;;;;;15.30;2.55;;;;;;;;;;5053890;28;20099;-72
2022/09/19 09:50:17;;;;;;;16.10;2.53;;;;;;;;;;5053790;28;20053;-74
2022/09/19 09:52:51;;;;;;;15.35;2.80;;;;;;;;;;5043648;28;20053;-73
2022/09/19 09:58:26;;;;;;;14.38;2.25;;;;;;;;;;5052431;28;20048;-74
2022/09/19 10:03:49;;;;;;;11.32;1.98;;;;;;;;;;5053779;28;20080;-75
2022/09/19 10:06:34;;;;;;;14.13;2.17;;;;;;;;;;5034208;28;20052;-73
2022/09/19 10:09:01;;;;;;;17.50;2.40;;;;;;;;;;5041402;28;20056;-72
2022/09/19 10:11:33;;;;;;;13.73;2.55;;;;;;;;;;5052548;28;20048;-74
2022/09/19 10:14:02;;;;;;;14.57;2.50;;;;;;;;;;5053552;28;20052;-77
2022/09/19 10:16:32;;;;;;;20.98;2.55;;;;;;;;;;5052010;28;20049;-78
2022/09/19 10:19:07;;;;;;;16.23;2.30;;;;;;;;;;5049241;28;20080;-72
2022/09/19 10:21:33;;;;;;;13.48;2.30;;;;;;;;;;5046995;28;20045;-71
2022/09/19 10:23:59;;;;;;;15.07;2.35;;;;;;;;;;5041943;28;20041;-72
2022/09/19 10:26:30;;;;;;;11.20;2.15;;;;;;;;;;5050996;28;20486;-78
2022/09/19 10:29:00;;;;;;;8.95;1.70;;;;;;;;;;5042790;28;20500;-72
2022/09/19 10:31:34;;;;;;;10.90;1.85;;;;;;;;;;5005253;28;20480;-73
2022/09/19 10:34:05;;;;;;;27.30;2.83;;;;;;;;;;5044269;28;20108;-72
2022/09/19 10:36:35;;;;;;;10.80;2.35;;;;;;;;;;5043864;28;20037;-72
2022/09/19 10:39:09;;;;;;;12.55;2.55;;;;;;;;;;5044738;28;20045;-71
2022/09/19 10:41:35;;;;;;;13.13;1.98;;;;;;;;;;5039611;28;20079;-70
2022/09/19 10:44:06;;;;;;;8.27;1.30;;;;;;;;;;5045031;28;20032;-72
2022/09/19 10:47:04;;;;;;;6.70;1.15;;;;;;;;;;5027527;28;20041;-71
2022/09/19 10:49:34;;;;;;;10.30;2.05;;;;;;;;;;5031495;28;20462;-71
2022/09/19 10:52:01;;;;;;;8.80;1.45;;;;;;;;;;5042984;28;20052;-74
2022/09/19 10:54:36;;;;;;;8.18;1.30;;;;;;;;;;5042307;28;20044;-72
2022/09/19 10:57:04;;;;;;;8.55;1.30;;;;;;;;;;5049745;28;20044;-72
2022/09/19 10:59:36;;;;;;;8.57;1.92;;;;;;;;;;5052833;28;20066;-71
2022/09/19 11:02:21;;;;;;;13.18;2.33;;;;;;;;;;5034034;28;20037;-72
2022/09/19 11:04:56;;;;;;;14.25;2.17;;;;;;;;;;5045604;28;20106;-72
2022/09/19 11:07:26;;;;;;;9.73;1.77;;;;;;;;;;5039181;28;20079;-73
2022/09/19 11:09:58;;;;;;;14.35;2.10;;;;;;;;;;5049287;28;20060;-73
2022/09/19 11:12:25;;;;;;;13.60;2.50;;;;;;;;;;5053451;28;20053;-73
2022/09/19 11:14:55;;;;;;;12.75;2.83;;;;;;;;;;5053779;28;20136;-72
2022/09/19 11:17:37;;;;;;;17.40;2.85;;;;;;;;;;5053445;28;20064;-72
2022/09/19 11:20:03;;;;;;;14.15;2.63;;;;;;;;;;5043922;28;20068;-72
2022/09/19 11:22:53;;;;;;;15.40;2.45;;;;;;;;;;5052261;28;20495;-73
2022/09/19 11:25:34;;;;;;;15.23;2.33;;;;;;;;;;5017723;28;20049;-72
2022/09/19 11:28:18;;;;;;;14.20;2.40;;;;;;;;;;5052744;28;20041;-72
2022/09/19 11:31:07;;;;;;;15.63;2.28;;;;;;;;;;5051590;28;20120;-72
2022/09/19 11:33:35;;;;;;;16.60;2.63;;;;;;;;;;4975294;28;20064;-72
2022/09/19 11:36:07;;;;;;;13.75;2.40;;;;;;;;;;4990758;28;20395;-72
2022/09/19 11:38:50;;;;;;;17.40;4.20;;;;;;;;;;4992209;28;20501;-73
2022/09/19 11:41:28;;;;;;;16.30;3.65;;;;;;;;;;4976486;28;20078;-73
2022/09/19 11:44:20;;;;;;;14.18;3.03;;;;;;;;;;4991130;28;20082;-73
2022/09/19 11:47:00;;;;;;;12.63;2.58;;;;;;;;;;4986407;28;20440;-73
2022/09/19 11:49:26;;;;;;;12.50;1.85;;;;;;;;;;4990491;28;20049;-73
2022/09/19 11:51:52;;;;;;;13.88;1.83;;;;;;;;;;4990903;28;20062;-73
2022/09/19 11:54:26;;;;;;;6.93;1.98;;;;;;;;;;4990258;28;20042;-73
2022/09/19 11:57:06;;;;;;;8.77;1.58;;;;;;;;;;4990711;28;20062;-73
2022/09/19 11:59:41;;;;;;;12.27;1.77;;;;;;;;;;4981087;28;20129;-73
2022/09/19 12:02:33;;;;;;;14.57;2.97;;;;;;;;;;4986669;28;20501;-73
2022/09/19 12:05:19;;;;;;;15.77;2.47;;;;;;;;;;4989225;28;20050;-73
2022/09/19 12:08:02;;;;;;;13.48;2.10;;;;;;;;;;4989523;28;20386;-74
2022/09/19 12:10:43;;;;;;;11.45;2.10;;;;;;;;;;5012303;28;20440;-73
2022/09/19 12:13:09;;;;;;;15.80;2.33;;;;;;;;;;5049355;28;20053;-74
2022/09/19 12:15:35;;;;;;;14.23;2.22;;;;;;;;;;5051938;28;20044;-73
2022/09/19 12:18:07;;;;;;;15.27;2.25;;;;;;;;;;5032603;28;20044;-73
2022/09/19 12:20:43;;;;;;;13.05;2.10;;;;;;;;;;5047572;28;20144;-73
2022/09/19 12:26:16;;;;;;;16.55;2.20;;;;;;;;;;5042509;28;20041;-73
2022/09/19 12:28:49;;;;;;;14.82;2.67;;;;;;;;;;5049528;28;20084;-73
2022/09/19 12:31:17;;;;;;;14.48;2.10;;;;;;;;;;5031781;28;20102;-74
2022/09/19 12:33:48;;;;;;;11.77;2.08;;;;;;;;;;5033777;28;20049;-74
2022/09/19 12:36:20;;;;;;;11.27;2.30;;;;;;;;;;5050891;28;20049;-74
2022/09/19 12:38:56;;;;;;;10.63;2.47;;;;;;;;;;5050765;28;20143;-74
2022/09/19 12:41:22;;;;;;;15.80;2.42;;;;;;;;;;5051586;28;20068;-74
2022/09/19 12:43:52;;;;;;;10.43;1.92;;;;;;;;;;5051537;28;20488;-74
2022/09/19 12:46:27;;;;;;;19.67;6.43;;;;;;;;;;5036878;28;20048;-74
2022/09/19 12:49:03;;;;;;;15.23;4.90;;;;;;;;;;5032454;28;20080;-74
2022/09/19 12:51:41;;;;;;;11.98;2.72;;;;;;;;;;5051690;28;20053;-74
2022/09/19 12:54:11;;;;;;;13.80;2.20;;;;;;;;;;5050874;28;20037;-74
2022/09/19 12:56:42;;;;;;;11.48;2.08;;;;;;;;;;5031506;28;20101;-74
2022/09/19 12:59:18;;;;;;;11.32;1.83;;;;;;;;;;5050751;28;20467;-74
2022/09/19 13:01:48;;;;;;;15.73;2.67;;;;;;;;;;5052272;28;20131;-74
2022/09/19 13:04:34;;;;;;;16.92;2.70;;;;;;;;;;5054922;28;20502;-74
2022/09/19 13:07:13;;;;;;;16.13;4.05;;;;;;;;;;5035298;28;20476;-74
2022/09/19 13:09:58;;;;;;;17.05;3.13;;;;;;;;;;5047660;28;20130;-75
2022/09/19 13:12:34;;;;;;;10.60;1.90;;;;;;;;;;5044682;28;20559;-74
2022/09/19 13:15:02;;;;;;;14.48;2.30;;;;;;;;;;5047685;28;20052;-74
2022/09/19 13:25:49;;;;;;;14.25;2.50;;;;;;;;;;5052131;28;20052;-74
2022/09/19 13:28:19;;;;;;;11.55;2.30;;;;;;;;;;5053537;28;20588;-74
2022/09/19 13:30:48;;;;;;;11.63;2.38;;;;;;;;;;5054247;28;20041;-74
2022/09/19 13:33:35;;;;;;;14.70;2.60;;;;;;;;;;5053665;28;20056;-74
2022/09/19 13:36:08;;;;;;;15.23;2.40;;;;;;;;;;5054582;28;20045;-74
2022/09/19 13:38:38;;;;;;;12.98;1.98;;;;;;;;;;5053819;28;20442;-74
2022/09/19 13:41:06;;;;;;;11.20;1.88;;;;;;;;;;5036902;28;20115;-74
2022/09/19 13:43:45;;;;;;;13.13;2.13;;;;;;;;;;5045396;28;20042;-74
2022/09/19 13:46:18;;;;;;;12.68;2.08;;;;;;;;;;5051763;28;20083;-74
2022/09/19 13:48:53;;;;;;;11.45;2.10;;;;;;;;;;5054689;28;20052;-74
2022/09/19 13:51:28;;;;;;;9.60;1.98;;;;;;;;;;5045360;28;20046;-74
2022/09/19 13:54:12;;;;;;;15.05;2.15;;;;;;;;;;5039316;28;20132;-74
2022/09/19 13:56:39;;;;;;;15.20;2.47;;;;;;;;;;5049636;28;20181;-74
2022/09/19 13:59:18;;;;;;;12.68;1.98;;;;;;;;;;5053105;28;20049;-76
2022/09/19 14:02:00;;;;;;;13.48;1.90;;;;;;;;;;5021554;28;20044;-73
2022/09/19 14:04:53;;;;;;;16.98;3.90;;;;;;;;;;5016028;28;20092;-73
2022/09/19 14:07:23;;;;;;;16.85;3.55;;;;;;;;;;5050140;28;20041;-73
2022/09/19 14:09:57;;;;;;;13.63;2.25;;;;;;;;;;5048235;28;20049;-76
2022/09/19 14:12:36;;;;;;;17.67;2.47;;;;;;;;;;5032937;28;20049;-73
2022/09/19 14:15:27;;;;;;;13.15;2.30;;;;;;;;;;5035710;28;20049;-75
2022/09/19 14:18:12;;;;;;;14.02;2.17;;;;;;;;;;5052310;28;20045;-73
2022/09/19 14:21:11;;;;;;;18.65;2.40;;;;;;;;;;5033876;28;20060;-74
2022/09/19 14:23:37;;;;;;;14.85;1.85;;;;;;;;;;5035053;28;20049;-73
2022/09/19 14:26:29;;;;;;;12.90;1.73;;;;;;;;;;5043752;28;20048;-74
2022/09/19 14:29:11;;;;;;;9.75;1.40;;;;;;;;;;5053732;28;20061;-73
2022/09/19 14:31:52;;;;;;;9.93;1.42;;;;;;;;;;5050289;28;20033;-73
2022/09/19 14:34:35;;;;;;;7.20;1.70;;;;;;;;;;5046515;28;20056;-73
2022/09/19 14:37:04;;;;;;;7.93;1.27;;;;;;;;;;5050693;28;20049;-73
2022/09/19 14:39:30;;;;;;;10.68;1.40;;;;;;;;;;5020301;28;20067;-73
2022/09/19 14:42:14;;;;;;;7.30;1.23;;;;;;;;;;5052091;28;20466;-73
2022/09/19 14:44:44;;;;;;;7.03;1.30;;;;;;;;;;5044637;28;20341;-73
2022/09/19 14:47:17;;;;;;;10.38;1.60;;;;;;;;;;5044910;28;20056;-73
2022/09/19 14:49:47;;;;;;;8.23;1.38;;;;;;;;;;5044393;28;20041;-73
2022/09/19 14:52:16;;;;;;;9.90;2.22;;;;;;;;;;5045989;28;20049;-73
2022/09/19 14:54:44;;;;;;;13.60;2.30;;;;;;;;;;5045467;28;20136;-73
2022/09/19 14:57:19;;;;;;;13.93;2.20;;;;;;;;;;5042633;28;20044;-74
2022/09/19 14:59:45;;;;;;;13.95;2.20;;;;;;;;;;5043259;28;20392;-74
2022/09/19 15:02:12;;;;;;;12.45;2.28;;;;;;;;;;5045181;28;20491;-73
2022/09/19 15:04:38;;;;;;;14.88;2.42;;;;;;;;;;5041921;28;20057;-74
2022/09/19 15:07:04;;;;;;;12.45;2.05;;;;;;;;;;5042202;28;20049;-73
2022/09/19 15:09:30;;;;;;;17.40;2.28;;;;;;;;;;5027978;28;20396;-74
2022/09/19 15:11:58;;;;;;;14.90;2.53;;;;;;;;;;5044087;28;20090;-73
2022/09/19 15:14:26;;;;;;;12.07;1.88;;;;;;;;;;5045703;28;20041;-74
2022/09/19 15:17:12;;;;;;;11.35;1.88;;;;;;;;;;5045703;28;20064;-74
2022/09/19 15:19:41;;;;;;;14.75;2.28;;;;;;;;;;5042011;28;20558;-73